createdAt,value
2022-11-18T00:02:43.442Z,4.13
2022-11-18T00:05:55.347Z,4.18
2022-11-18T00:09:02.218Z,4.23
2022-11-18T00:12:24.657Z,4.26
2022-11-18T00:15:31.858Z,4.26
2022-11-18T00:18:37.095Z,4.24
2022-11-18T00:21:42.589Z,4.21
2022-11-18T00:24:48.651Z,4.31
2022-11-18T00:27:53.511Z,4.31
2022-11-18T00:31:03.932Z,4.34
2022-11-18T00:34:11.731Z,4.36
2022-11-18T00:37:16.708Z,4.40
2022-11-18T00:40:23.018Z,4.46
2022-11-18T00:43:27.699Z,4.46
2022-11-18T00:46:32.569Z,4.42
2022-11-18T00:49:37.251Z,4.54
2022-11-18T00:52:42.333Z,4.59
2022-11-18T00:55:48.251Z,4.56
2022-11-18T00:58:53.348Z,4.59
2022-11-18T01:01:57.966Z,4.53
2022-11-18T01:05:02.800Z,4.58
2022-11-18T01:08:07.949Z,4.52
2022-11-18T01:11:32.122Z,4.52
2022-11-18T01:14:37.280Z,4.47
2022-11-18T01:17:42.224Z,4.50
2022-11-18T01:20:47.918Z,4.59
2022-11-18T01:23:53.489Z,4.61
2022-11-18T01:26:59.491Z,4.62
2022-11-18T01:30:04.941Z,4.57
2022-11-18T01:33:12.695Z,4.53
2022-11-18T01:36:19.714Z,4.55
2022-11-18T01:39:24.441Z,4.62
2022-11-18T01:42:30.650Z,4.61
2022-11-18T01:45:36.794Z,4.60
2022-11-18T01:48:42.036Z,4.69
2022-11-18T01:51:51.334Z,4.68
2022-11-18T01:55:00.368Z,4.68
2022-11-18T01:58:10.983Z,4.56
2022-11-18T02:01:16.427Z,4.57
2022-11-18T02:04:21.231Z,4.67
2022-11-18T02:07:26.825Z,4.70
2022-11-18T02:10:31.562Z,4.68
2022-11-18T02:13:37.993Z,4.69
2022-11-18T02:16:58.098Z,4.65
2022-11-18T02:20:30.106Z,4.72
2022-11-18T02:24:18.579Z,4.63
2022-11-18T02:28:26.312Z,4.62
2022-11-18T02:31:35.541Z,4.63
2022-11-18T02:34:49.635Z,4.65
2022-11-18T02:37:58.811Z,4.68
2022-11-18T02:41:07.486Z,4.61
2022-11-18T02:44:15.948Z,4.65
2022-11-18T02:47:22.982Z,4.66
2022-11-18T02:50:29.257Z,4.68
2022-11-18T02:53:35.126Z,4.66
2022-11-18T02:56:39.911Z,4.69
2022-11-18T02:59:44.713Z,4.76
2022-11-18T03:02:52.131Z,4.75
2022-11-18T03:06:08.763Z,4.65
2022-11-18T03:09:21.301Z,4.69
2022-11-18T03:12:35.650Z,4.67
2022-11-18T03:15:50.306Z,4.61
2022-11-18T03:19:02.683Z,4.51
2022-11-18T03:22:15.375Z,4.59
2022-11-18T03:25:25.410Z,4.63
2022-11-18T03:28:33.870Z,4.64
2022-11-18T03:31:42.808Z,4.53
2022-11-18T03:34:51.393Z,4.56
2022-11-18T03:38:01.172Z,4.48
2022-11-18T03:41:10.027Z,4.53
2022-11-18T03:44:21.189Z,4.44
2022-11-18T03:47:31.134Z,4.42
2022-11-18T03:50:42.771Z,4.45
2022-11-18T03:53:54.062Z,4.47
2022-11-18T03:57:02.736Z,4.55
2022-11-18T04:00:10.598Z,4.53
2022-11-18T04:03:15.718Z,4.42
2022-11-18T04:06:27.047Z,4.46
2022-11-18T04:09:38.531Z,4.48
2022-11-18T04:12:48.103Z,4.37
2022-11-18T04:15:53.215Z,4.45
2022-11-18T04:19:01.507Z,4.42
2022-11-18T04:22:15.024Z,4.32
2022-11-18T04:25:19.765Z,4.30
2022-11-18T04:28:24.641Z,4.32
2022-11-18T04:31:29.482Z,4.38
2022-11-18T04:34:34.310Z,4.37
2022-11-18T04:37:40.414Z,4.34
2022-11-18T04:40:45.271Z,4.38
2022-11-18T04:43:49.828Z,4.46
2022-11-18T04:46:56.006Z,4.45
2022-11-18T04:50:00.800Z,4.45
2022-11-18T04:53:07.051Z,4.45
2022-11-18T04:56:13.645Z,4.45
2022-11-18T04:59:21.583Z,4.45
2022-11-18T05:02:26.326Z,4.41
2022-11-18T05:05:31.200Z,4.58
2022-11-18T05:08:37.506Z,4.54
2022-11-18T05:11:59.763Z,4.60
2022-11-18T05:15:04.678Z,4.67
2022-11-18T05:18:15.030Z,4.63
2022-11-18T05:21:20.742Z,4.57
2022-11-18T05:24:27.148Z,4.46
2022-11-18T05:27:31.989Z,4.58
2022-11-18T05:30:36.874Z,4.55
2022-11-18T05:33:42.782Z,4.60
2022-11-18T05:36:47.631Z,4.53
2022-11-18T05:39:53.734Z,4.51
2022-11-18T05:43:13.550Z,4.36
2022-11-18T05:46:18.418Z,4.40
2022-11-18T05:49:23.375Z,4.40
2022-11-18T05:52:28.150Z,4.36
2022-11-18T05:55:39.653Z,4.35
2022-11-18T05:58:44.457Z,4.38
2022-11-18T06:01:54.367Z,4.45
2022-11-18T06:05:01.198Z,4.48
2022-11-18T06:08:06.459Z,4.36
2022-11-18T06:11:15.335Z,4.26
2022-11-18T06:14:24.207Z,4.29
2022-11-18T06:17:31.311Z,4.20
2022-11-18T06:20:38.467Z,4.14
2022-11-18T06:23:44.723Z,4.05
2022-11-18T06:26:51.094Z,4.03
2022-11-18T06:29:55.930Z,3.90
2022-11-18T06:33:00.770Z,3.92
2022-11-18T06:36:06.215Z,3.83
2022-11-18T06:39:11.008Z,3.84
2022-11-18T06:42:31.602Z,3.77
2022-11-18T06:45:36.444Z,3.75
2022-11-18T06:48:41.226Z,3.76
2022-11-18T06:51:46.044Z,3.77
2022-11-18T06:54:50.758Z,3.70
2022-11-18T06:57:58.935Z,3.72
2022-11-18T07:01:12.371Z,3.84
2022-11-18T07:04:17.373Z,3.85
2022-11-18T07:07:22.150Z,3.82
2022-11-18T07:10:27.106Z,3.77
2022-11-18T07:13:33.574Z,3.79
2022-11-18T07:16:38.873Z,3.75
2022-11-18T07:19:43.548Z,3.86
2022-11-18T07:22:48.434Z,3.82
2022-11-18T07:25:56.331Z,3.80
2022-11-18T07:29:02.631Z,4.01
2022-11-18T07:32:08.303Z,4.01
2022-11-18T07:35:13.746Z,3.95
2022-11-18T07:38:18.558Z,3.90
2022-11-18T07:41:24.959Z,4.01
2022-11-18T07:44:30.908Z,3.97
2022-11-18T07:47:36.376Z,3.92
2022-11-18T07:50:46.895Z,3.97
2022-11-18T07:53:52.443Z,4.07
2022-11-18T07:56:57.149Z,4.02
2022-11-18T08:00:04.378Z,3.92
2022-11-18T08:03:16.825Z,3.93
2022-11-18T08:06:22.070Z,3.88
2022-11-18T08:09:26.636Z,3.75
2022-11-18T08:12:31.857Z,3.78
2022-11-18T08:15:42.068Z,3.74
2022-11-18T08:18:47.507Z,3.68
2022-11-18T08:21:52.147Z,3.70
2022-11-18T08:24:56.983Z,3.74
2022-11-18T08:28:01.644Z,3.84
2022-11-18T08:31:13.101Z,3.92
2022-11-18T08:34:18.004Z,3.91
2022-11-18T08:37:22.887Z,3.84
2022-11-18T08:40:29.147Z,3.94
2022-11-18T08:43:34.255Z,3.82
2022-11-18T08:46:40.419Z,3.80
2022-11-18T08:49:45.425Z,3.81
2022-11-18T08:52:50.099Z,3.83
2022-11-18T08:55:58.000Z,3.82
2022-11-18T08:59:02.750Z,3.78
2022-11-18T09:02:15.732Z,3.89
2022-11-18T09:05:20.743Z,3.79
2022-11-18T09:08:26.687Z,3.82
2022-11-18T09:11:31.340Z,3.82
2022-11-18T09:18:02.411Z,4.01
2022-11-18T09:21:10.168Z,3.90
2022-11-18T09:24:15.056Z,3.94
2022-11-18T09:27:20.208Z,3.99
2022-11-18T09:30:25.051Z,3.96
2022-11-18T09:33:31.242Z,3.84
2022-11-18T09:36:36.101Z,3.87
2022-11-18T09:39:41.055Z,3.78
2022-11-18T09:42:57.592Z,3.84
2022-11-18T09:46:11.536Z,3.82
2022-11-18T09:49:26.044Z,3.96
2022-11-18T09:52:36.285Z,4.07
2022-11-18T09:55:41.850Z,4.03
2022-11-18T09:58:46.942Z,4.05
2022-11-18T10:01:53.500Z,4.06
2022-11-18T10:05:14.950Z,4.21
2022-11-18T10:08:26.194Z,4.26
2022-11-18T10:11:41.747Z,4.28
2022-11-18T10:15:05.358Z,4.35
2022-11-18T10:18:57.966Z,4.21
2022-11-18T10:22:01.335Z,4.32
2022-11-18T10:25:13.767Z,4.20
2022-11-18T10:28:23.310Z,4.14
2022-11-18T10:31:28.179Z,4.24
2022-11-18T10:34:33.830Z,4.17
2022-11-18T10:38:06.172Z,4.11
2022-11-18T10:41:07.285Z,4.05
2022-11-18T10:44:32.514Z,4.01
2022-11-18T10:47:37.421Z,4.03
2022-11-18T10:50:43.946Z,4.16
2022-11-18T10:53:49.973Z,4.18
2022-11-18T10:56:58.683Z,4.28
2022-11-18T11:00:05.861Z,4.14
2022-11-18T11:03:39.728Z,4.16
2022-11-18T11:06:44.480Z,4.15
2022-11-18T11:10:02.453Z,4.08
2022-11-18T11:13:15.166Z,4.19
2022-11-18T11:16:26.104Z,4.38
2022-11-18T11:19:41.938Z,4.31
2022-11-18T11:22:47.119Z,4.18
2022-11-18T11:30:03.153Z,4.40
2022-11-18T11:33:31.118Z,4.28
2022-11-18T11:36:46.761Z,4.24
2022-11-18T11:40:05.237Z,4.24
2022-11-18T11:43:27.688Z,4.13
2022-11-18T11:46:39.524Z,4.02
2022-11-18T11:49:54.664Z,4.10
2022-11-18T11:53:17.829Z,4.19
2022-11-18T11:56:29.406Z,4.12
2022-11-18T11:59:44.581Z,4.03
2022-11-18T12:03:08.720Z,4.00
2022-11-18T12:06:13.481Z,4.03
2022-11-18T12:09:22.996Z,4.10
2022-11-18T12:12:38.508Z,4.15
2022-11-18T12:15:56.168Z,3.96
2022-11-18T12:19:04.295Z,4.01
2022-11-18T12:22:10.663Z,4.02
2022-11-18T12:25:52.964Z,4.05
2022-11-18T12:29:23.617Z,4.06
2022-11-18T12:32:42.169Z,3.93
2022-11-18T12:35:49.316Z,3.75
2022-11-18T12:38:54.519Z,3.91
2022-11-18T12:42:18.332Z,3.96
2022-11-18T12:46:00.053Z,3.96
2022-11-18T12:50:12.123Z,3.77
2022-11-18T12:53:38.483Z,3.78
2022-11-18T12:56:43.301Z,3.73
2022-11-18T12:59:48.512Z,3.56
2022-11-18T13:02:54.372Z,3.60
2022-11-18T13:06:08.810Z,3.69
2022-11-18T13:09:18.973Z,3.76
2022-11-18T13:12:27.633Z,3.76
2022-11-18T13:15:50.160Z,3.75
2022-11-18T13:18:56.397Z,3.72
2022-11-18T13:22:20.516Z,3.65
2022-11-18T13:25:28.273Z,3.51
2022-11-18T13:28:37.626Z,3.56
2022-11-18T13:31:48.968Z,3.53
2022-11-18T13:34:55.636Z,3.49
2022-11-18T13:38:02.228Z,3.42
2022-11-18T13:41:22.649Z,3.33
2022-11-18T13:44:29.848Z,3.34
2022-11-18T13:47:38.454Z,3.35
2022-11-18T13:50:47.331Z,3.20
2022-11-18T13:53:52.749Z,3.15
2022-11-18T13:56:59.203Z,3.02
2022-11-18T14:00:08.174Z,3.00
2022-11-18T14:03:25.265Z,3.02
2022-11-18T14:06:32.321Z,3.04
2022-11-18T14:09:37.108Z,2.94
2022-11-18T14:12:43.432Z,2.84
2022-11-18T14:15:48.309Z,2.95
2022-11-18T14:18:53.833Z,2.95
2022-11-18T14:22:08.745Z,2.88
2022-11-18T14:25:20.578Z,2.82
2022-11-18T14:28:28.877Z,2.90
2022-11-18T14:31:33.945Z,2.85
2022-11-18T14:34:38.716Z,2.91
2022-11-18T14:37:43.496Z,2.86
2022-11-18T14:40:48.118Z,2.82
2022-11-18T14:43:54.321Z,2.71
2022-11-18T14:47:01.328Z,2.69
2022-11-18T14:50:10.461Z,2.70
2022-11-18T14:53:15.536Z,2.75
2022-11-18T14:56:25.541Z,2.77
2022-11-18T14:59:32.469Z,2.78
2022-11-18T15:02:37.288Z,2.82
2022-11-18T15:05:41.968Z,2.75
2022-11-18T15:08:49.179Z,2.66
2022-11-18T15:11:54.322Z,2.70
2022-11-18T15:15:00.471Z,2.73
2022-11-18T15:18:05.212Z,2.76
2022-11-18T15:21:10.186Z,2.77
2022-11-18T15:24:16.077Z,2.85
2022-11-18T15:27:21.368Z,2.80
2022-11-18T15:30:27.337Z,2.92
2022-11-18T15:33:32.220Z,2.97
2022-11-18T15:36:37.116Z,2.83
2022-11-18T15:39:41.995Z,2.84
2022-11-18T15:42:51.847Z,2.92
2022-11-18T15:46:00.752Z,2.95
2022-11-18T15:49:09.095Z,2.95
2022-11-18T15:52:14.533Z,3.00
2022-11-18T15:55:19.217Z,3.01
2022-11-18T15:58:31.492Z,2.96
2022-11-18T16:01:43.098Z,2.95
2022-11-18T16:04:47.958Z,2.94
2022-11-18T16:07:54.965Z,2.89
2022-11-18T16:11:17.849Z,2.88
2022-11-18T16:14:24.310Z,2.89
2022-11-18T16:17:30.447Z,2.98
2022-11-18T16:20:35.061Z,2.95
2022-11-18T16:23:39.937Z,2.88
2022-11-18T16:26:44.914Z,2.86
2022-11-18T16:29:49.818Z,2.92
2022-11-18T16:32:56.115Z,2.91
2022-11-18T16:36:00.975Z,2.93
2022-11-18T16:39:07.650Z,2.92
2022-11-18T16:42:13.619Z,2.91
2022-11-18T16:45:18.683Z,2.95
2022-11-18T16:48:24.901Z,3.02
2022-11-18T16:51:31.286Z,2.94
2022-11-18T16:54:41.029Z,2.92
2022-11-18T16:57:49.164Z,2.81
2022-11-18T17:01:17.209Z,2.91
2022-11-18T17:04:21.053Z,3.02
2022-11-18T17:07:25.890Z,2.90
2022-11-18T17:10:30.624Z,2.84
2022-11-18T17:13:35.611Z,2.77
2022-11-18T17:16:40.491Z,2.69
2022-11-18T17:19:46.626Z,2.80
2022-11-18T17:22:53.712Z,2.86
2022-11-18T17:25:58.572Z,2.83
2022-11-18T17:29:03.737Z,2.92
2022-11-18T17:32:08.617Z,2.94
2022-11-18T17:35:15.180Z,2.82
2022-11-18T17:38:20.039Z,2.85
2022-11-18T17:41:45.589Z,2.92
2022-11-18T17:44:50.400Z,2.93
2022-11-18T17:47:55.560Z,2.95
2022-11-18T17:51:08.384Z,2.92
2022-11-18T17:54:14.313Z,2.84
2022-11-18T17:57:19.338Z,2.89
2022-11-18T18:00:24.203Z,2.83
2022-11-18T18:03:30.717Z,2.84
2022-11-18T18:06:37.258Z,2.88
2022-11-18T18:09:41.999Z,2.87
2022-11-18T18:13:04.132Z,3.02
2022-11-18T18:16:09.259Z,3.01
2022-11-18T18:19:17.715Z,2.93
2022-11-18T18:22:23.886Z,2.97
2022-11-18T18:25:28.476Z,3.10
2022-11-18T18:28:33.392Z,3.02
2022-11-18T18:31:38.847Z,3.11
2022-11-18T18:34:43.730Z,3.07
2022-11-18T18:37:49.634Z,3.04
2022-11-18T18:40:55.412Z,3.06
2022-11-18T18:44:00.389Z,3.10
2022-11-18T18:47:04.258Z,3.05
2022-11-18T18:50:09.109Z,3.05
2022-11-18T18:53:15.874Z,3.07
2022-11-18T18:56:20.461Z,3.16
2022-11-18T18:59:25.332Z,3.11
2022-11-18T19:02:29.872Z,3.09
2022-11-18T19:06:12.203Z,3.15
2022-11-18T19:09:02.759Z,3.07
2022-11-18T19:12:25.888Z,3.07
2022-11-18T19:15:30.581Z,2.96
2022-11-18T19:18:36.469Z,2.88
2022-11-18T19:21:41.317Z,2.95
2022-11-18T19:24:50.255Z,3.01
2022-11-18T19:27:55.425Z,3.03
2022-11-18T19:31:01.165Z,2.98
2022-11-18T19:34:05.960Z,2.96
2022-11-18T19:37:10.906Z,3.03
2022-11-18T19:40:17.072Z,3.07
2022-11-18T19:43:21.939Z,3.10
2022-11-18T19:46:30.551Z,3.04
2022-11-18T19:49:36.710Z,3.08
2022-11-18T19:52:41.254Z,3.09
2022-11-18T19:55:56.794Z,3.04
2022-11-18T19:59:01.938Z,3.13
2022-11-18T20:02:07.207Z,3.06
2022-11-18T20:05:30.329Z,3.00
2022-11-18T20:08:36.757Z,2.95
2022-11-18T20:11:45.079Z,2.95
2022-11-18T20:14:49.914Z,3.01
2022-11-18T20:17:54.780Z,3.06
2022-11-18T20:21:06.866Z,3.06
2022-11-18T20:24:17.045Z,3.16
2022-11-18T20:27:23.394Z,3.16
2022-11-18T20:30:27.928Z,3.09
2022-11-18T20:33:35.329Z,3.12
2022-11-18T20:36:40.095Z,3.15
2022-11-18T20:39:44.979Z,3.17
2022-11-18T20:43:08.232Z,3.14
2022-11-18T20:46:17.348Z,3.15
2022-11-18T20:49:24.954Z,3.14
2022-11-18T20:52:29.745Z,3.14
2022-11-18T20:55:37.901Z,3.05
2022-11-18T20:58:44.192Z,3.10
2022-11-18T21:01:48.935Z,3.14
2022-11-18T21:04:53.832Z,3.00
2022-11-18T21:07:58.364Z,2.95
2022-11-18T21:11:04.409Z,2.87
2022-11-18T21:14:24.834Z,2.90
2022-11-18T21:17:30.249Z,2.97
2022-11-18T21:20:52.134Z,3.00
2022-11-18T21:23:57.393Z,2.83
2022-11-18T21:27:03.849Z,2.88
2022-11-18T21:30:12.823Z,2.95
2022-11-18T21:33:17.421Z,2.83
2022-11-18T21:36:23.520Z,2.85
2022-11-18T21:39:28.426Z,2.77
2022-11-18T21:42:33.292Z,2.77
2022-11-18T21:45:39.269Z,2.80
2022-11-18T21:48:44.720Z,2.69
2022-11-18T21:51:49.459Z,2.79
2022-11-18T21:54:54.310Z,2.76
2022-11-18T21:58:02.976Z,2.70
2022-11-18T22:01:12.884Z,2.83
2022-11-18T22:04:31.459Z,2.62
2022-11-18T22:07:37.458Z,2.69
2022-11-18T22:10:47.226Z,2.75
2022-11-18T22:13:52.962Z,2.76
2022-11-18T22:16:59.552Z,2.75
2022-11-18T22:20:04.879Z,2.85
2022-11-18T22:23:14.504Z,2.72
2022-11-18T22:26:21.294Z,2.73
2022-11-18T22:29:26.283Z,2.79
2022-11-18T22:32:32.504Z,2.83
2022-11-18T22:35:37.074Z,2.79
2022-11-18T22:38:43.369Z,2.74
2022-11-18T22:42:05.542Z,2.82
2022-11-18T22:45:12.287Z,2.80
2022-11-18T22:48:18.398Z,2.71
2022-11-18T22:51:23.309Z,2.77
2022-11-18T22:54:43.457Z,2.70
2022-11-18T22:57:48.239Z,2.76
2022-11-18T23:00:52.838Z,2.63
2022-11-18T23:03:59.121Z,2.58
2022-11-18T23:07:04.607Z,2.68
2022-11-18T23:10:10.593Z,2.72
2022-11-18T23:13:33.791Z,2.67
2022-11-18T23:16:40.794Z,2.66
2022-11-18T23:19:47.539Z,2.72
2022-11-18T23:22:53.560Z,2.84
2022-11-18T23:26:05.740Z,2.77
2022-11-18T23:29:11.267Z,2.77
2022-11-18T23:32:16.090Z,2.64
2022-11-18T23:35:22.240Z,2.72
2022-11-18T23:38:27.993Z,2.72
2022-11-18T23:41:32.920Z,2.65
2022-11-18T23:44:46.934Z,2.76
2022-11-18T23:47:51.957Z,2.82
2022-11-18T23:50:59.465Z,2.78
2022-11-18T23:54:04.426Z,2.80
2022-11-18T23:57:09.671Z,2.83
